createdAt,value
2019-03-01T00:00:29.325Z,4.92
2019-03-01T00:03:01.573Z,5.80
2019-03-01T00:05:35.348Z,4.08
2019-03-01T00:08:08.611Z,4.00
2019-03-01T00:10:48.343Z,3.33
2019-03-01T00:13:25.074Z,3.95
2019-03-01T00:16:04.581Z,3.75
2019-03-01T00:18:50.456Z,3.42
2019-03-01T00:21:42.395Z,3.95
2019-03-01T00:24:16.180Z,4.75
2019-03-01T00:26:55.460Z,3.10
2019-03-01T00:29:35.187Z,11.00
2019-03-01T00:32:08.980Z,6.65
2019-03-01T00:34:42.768Z,4.12
2019-03-01T00:37:33.056Z,7.92
2019-03-01T00:40:06.823Z,4.40
2019-03-01T00:42:52.472Z,8.35
2019-03-01T00:45:24.684Z,4.62
2019-03-01T00:47:57.160Z,3.33
2019-03-01T00:50:29.407Z,3.60
2019-03-01T00:53:01.634Z,5.60
2019-03-01T00:55:33.885Z,6.53
2019-03-01T00:58:06.120Z,3.08
2019-03-01T01:00:42.953Z,4.28
2019-03-01T01:03:15.194Z,7.70
2019-03-01T01:05:47.436Z,8.35
2019-03-01T01:08:19.680Z,5.05
2019-03-01T01:10:51.921Z,7.87
2019-03-01T01:13:24.181Z,4.05
2019-03-01T01:15:56.489Z,7.07
2019-03-01T01:18:28.725Z,6.35
2019-03-01T01:21:01.015Z,6.03
2019-03-01T01:23:33.239Z,4.33
2019-03-01T01:26:05.481Z,8.33
2019-03-01T01:28:37.718Z,7.60
2019-03-01T01:31:09.960Z,4.78
2019-03-01T01:33:42.181Z,9.58
2019-03-01T01:36:14.434Z,4.12
2019-03-01T01:38:46.646Z,8.28
2019-03-01T01:41:18.891Z,4.70
2019-03-01T01:43:51.143Z,5.40
2019-03-01T01:46:23.398Z,6.55
2019-03-01T01:48:55.642Z,4.72
2019-03-01T01:51:27.887Z,4.50
2019-03-01T01:54:00.127Z,4.22
2019-03-01T01:56:32.380Z,8.38
2019-03-01T01:59:04.642Z,7.67
2019-03-01T02:01:36.867Z,5.03
2019-03-01T02:04:09.753Z,9.10
2019-03-01T02:06:42.513Z,7.33
2019-03-01T02:09:16.291Z,4.83
2019-03-01T02:11:48.808Z,10.03
2019-03-01T02:14:21.039Z,4.33
2019-03-01T02:16:53.326Z,5.37
2019-03-01T02:19:25.590Z,4.25
2019-03-01T02:31:40.859Z,3.55
2019-03-01T02:34:13.080Z,8.65
2019-03-01T02:36:45.355Z,3.60
2019-03-01T02:39:17.574Z,4.60
2019-03-01T02:41:49.851Z,5.45
2019-03-01T02:44:22.101Z,7.58
2019-03-01T02:46:54.339Z,10.75
2019-03-01T02:49:26.659Z,2.77
2019-03-01T02:51:58.991Z,3.58
2019-03-01T02:54:31.296Z,5.28
2019-03-01T02:57:03.539Z,6.72
2019-03-01T03:02:03.709Z,4.50
2019-03-01T03:04:35.947Z,3.60
2019-03-01T03:07:15.614Z,5.15
2019-03-01T03:09:47.908Z,6.95
2019-03-01T03:12:20.165Z,4.22
2019-03-01T03:14:52.474Z,6.75
2019-03-01T03:17:24.741Z,5.17
2019-03-01T03:19:57.001Z,4.50
2019-03-01T03:22:29.252Z,7.30
2019-03-01T03:25:01.646Z,5.20
2019-03-01T03:27:33.910Z,8.00
2019-03-01T03:30:07.669Z,3.83
2019-03-01T03:32:39.915Z,5.65
2019-03-01T03:35:12.160Z,5.60
2019-03-01T03:37:44.435Z,4.47
2019-03-01T03:40:16.659Z,3.15
2019-03-01T03:42:48.903Z,3.77
2019-03-01T03:45:21.144Z,4.65
2019-03-01T03:47:53.383Z,2.47
2019-03-01T03:50:25.649Z,5.35
2019-03-01T03:52:57.953Z,7.00
2019-03-01T03:55:30.254Z,6.75
2019-03-01T03:58:02.491Z,4.42
2019-03-01T04:00:34.727Z,3.47
2019-03-01T04:03:06.984Z,11.15
2019-03-01T04:05:39.219Z,3.67
2019-03-01T04:08:11.601Z,4.20
2019-03-01T04:10:43.826Z,5.37
2019-03-01T04:13:16.925Z,5.95
2019-03-01T04:15:49.260Z,5.80
2019-03-01T04:18:21.527Z,3.67
2019-03-01T04:20:53.762Z,3.30
2019-03-01T04:23:25.999Z,4.78
2019-03-01T04:25:58.253Z,4.08
2019-03-01T04:28:30.485Z,3.55
2019-03-01T04:31:03.591Z,3.92
2019-03-01T04:33:35.843Z,4.62
2019-03-01T04:36:08.081Z,5.05
2019-03-01T04:38:40.930Z,2.12
2019-03-01T04:41:13.147Z,2.62
2019-03-01T04:43:45.428Z,3.42
2019-03-01T04:46:17.663Z,2.25
2019-03-01T04:48:49.903Z,2.15
2019-03-01T04:51:22.137Z,4.92
2019-03-01T04:53:54.379Z,3.05
2019-03-01T04:56:26.650Z,1.57
2019-03-01T04:58:58.930Z,6.67
2019-03-01T05:01:31.163Z,2.27
2019-03-01T05:04:03.488Z,2.05
2019-03-01T05:06:35.728Z,2.42
2019-03-01T05:09:07.975Z,1.25
2019-03-01T05:11:40.968Z,2.22
2019-03-01T05:14:13.258Z,1.57
2019-03-01T05:16:45.506Z,1.15
2019-03-01T05:19:17.729Z,3.67
2019-03-01T05:21:49.963Z,1.82
2019-03-01T05:24:22.205Z,2.55
2019-03-01T05:26:54.434Z,1.98
2019-03-01T05:29:26.671Z,3.05
2019-03-01T05:31:58.901Z,1.22
2019-03-01T05:34:31.159Z,3.52
2019-03-01T05:37:03.386Z,8.80
2019-03-01T05:39:35.619Z,2.52
2019-03-01T05:42:07.835Z,3.95
2019-03-01T05:44:40.092Z,2.50
2019-03-01T05:47:12.311Z,1.45
2019-03-01T05:49:44.576Z,3.22
2019-03-01T05:52:16.853Z,5.58
2019-03-01T05:54:49.135Z,7.90
2019-03-01T05:57:21.376Z,6.35
2019-03-01T05:59:53.636Z,4.12
2019-03-01T06:02:30.157Z,4.80
2019-03-01T06:05:02.391Z,1.45
2019-03-01T06:07:44.902Z,2.20
2019-03-01T06:10:21.602Z,2.67
2019-03-01T06:12:55.386Z,3.98
2019-03-01T06:15:29.191Z,6.60
2019-03-01T06:18:05.677Z,4.40
2019-03-01T06:20:39.456Z,2.08
2019-03-01T06:23:19.037Z,0.70
2019-03-01T06:25:58.538Z,0.63
2019-03-01T06:28:35.228Z,3.47
2019-03-01T06:31:25.634Z,1.30
2019-03-01T06:33:59.395Z,1.65
2019-03-01T06:36:33.182Z,4.05
2019-03-01T06:39:17.362Z,1.57
2019-03-01T06:41:57.088Z,5.35
2019-03-01T06:44:33.491Z,5.30
2019-03-01T06:47:10.169Z,5.58
2019-03-01T06:49:52.843Z,2.20
2019-03-01T06:52:25.087Z,5.53
2019-03-01T06:54:57.308Z,4.47
2019-03-01T06:57:29.573Z,4.40
2019-03-01T07:00:01.830Z,6.67
2019-03-01T07:02:35.691Z,6.80
2019-03-01T07:05:10.692Z,5.80
2019-03-01T07:07:42.948Z,7.55
2019-03-01T07:10:15.154Z,5.92
2019-03-01T07:12:47.399Z,6.67
2019-03-01T07:15:19.639Z,8.35
2019-03-01T07:17:51.895Z,6.40
2019-03-01T07:20:24.143Z,10.98
2019-03-01T07:22:56.386Z,9.63
2019-03-01T07:25:28.611Z,8.25
2019-03-01T07:28:00.860Z,10.95
2019-03-01T07:30:33.095Z,9.20
2019-03-01T07:33:05.350Z,11.05
2019-03-01T07:35:37.572Z,10.15
2019-03-01T07:38:09.817Z,11.50
2019-03-01T07:40:42.074Z,11.93
2019-03-01T07:43:14.499Z,14.63
2019-03-01T07:45:46.748Z,14.63
2019-03-01T07:48:18.969Z,15.65
2019-03-01T07:50:52.502Z,14.53
2019-03-01T07:53:25.192Z,12.43
2019-03-01T07:56:00.640Z,14.80
2019-03-01T07:58:31.438Z,15.13
2019-03-01T08:01:03.756Z,15.75
2019-03-01T08:03:36.001Z,18.50
2019-03-01T08:06:13.140Z,16.27
2019-03-01T08:08:42.199Z,17.62
2019-03-01T08:11:14.457Z,25.85
2019-03-01T08:13:49.392Z,21.80
2019-03-01T08:16:21.542Z,20.45
2019-03-01T08:18:53.894Z,24.43
2019-03-01T08:21:26.146Z,27.17
2019-03-01T08:23:58.372Z,29.50
2019-03-01T08:26:33.750Z,26.93
2019-03-01T08:29:04.643Z,30.15
2019-03-01T08:31:36.905Z,27.95
2019-03-01T08:34:09.147Z,27.07
2019-03-01T08:36:42.542Z,25.80
2019-03-01T08:39:15.356Z,28.05
2019-03-01T08:41:47.620Z,28.75
2019-03-01T08:44:23.125Z,31.42
2019-03-01T08:46:53.822Z,35.75
2019-03-01T08:49:26.054Z,35.88
2019-03-01T08:51:58.454Z,38.55
2019-03-01T08:54:32.276Z,35.30
2019-03-01T08:57:04.531Z,41.50
2019-03-01T08:59:36.784Z,43.58
2019-03-01T09:02:09.020Z,39.60
2019-03-01T09:04:50.510Z,42.65
2019-03-01T09:07:15.336Z,43.60
2019-03-01T09:09:47.581Z,45.30
2019-03-01T09:12:19.821Z,53.08
2019-03-01T09:14:52.060Z,51.50
2019-03-01T09:17:24.341Z,56.73
2019-03-01T09:19:57.160Z,61.10
2019-03-01T09:22:29.579Z,67.95
2019-03-01T09:25:02.684Z,67.32
2019-03-01T09:27:35.803Z,67.40
2019-03-01T09:30:09.576Z,64.87
2019-03-01T09:32:41.834Z,62.65
2019-03-01T09:35:33.526Z,71.77
2019-03-01T09:38:07.681Z,66.37
2019-03-01T09:40:39.814Z,69.40
2019-03-01T09:43:12.066Z,69.47
2019-03-01T09:45:45.663Z,70.30
2019-03-01T09:48:18.269Z,73.07
2019-03-01T09:50:50.582Z,68.60
2019-03-01T09:53:22.835Z,71.97
2019-03-01T09:55:55.098Z,61.92
2019-03-01T09:58:27.343Z,67.40
2019-03-01T10:01:03.792Z,78.97
2019-03-01T10:03:36.048Z,69.25
2019-03-01T10:06:08.290Z,72.87
2019-03-01T10:08:40.563Z,69.42
2019-03-01T10:11:12.787Z,61.35
2019-03-01T10:13:45.070Z,63.90
2019-03-01T10:16:17.299Z,67.37
2019-03-01T10:18:49.563Z,75.22
2019-03-01T10:21:21.814Z,73.28
2019-03-01T10:23:54.124Z,79.05
2019-03-01T10:26:26.363Z,77.87
2019-03-01T10:28:58.600Z,67.40
2019-03-01T10:31:30.927Z,83.85
2019-03-01T10:34:03.203Z,77.35
2019-03-01T10:36:35.570Z,74.72
2019-03-01T10:39:09.353Z,76.67
2019-03-01T10:41:41.584Z,81.80
2019-03-01T10:44:13.870Z,83.42
2019-03-01T10:46:46.122Z,86.30
2019-03-01T10:49:18.368Z,77.72
2019-03-01T10:51:50.617Z,81.32
2019-03-01T10:54:22.894Z,78.97
2019-03-01T10:56:55.135Z,78.95
2019-03-01T10:59:27.386Z,78.22
2019-03-01T11:01:59.677Z,71.30
2019-03-01T11:04:31.928Z,72.35
2019-03-01T11:07:04.341Z,62.93
2019-03-01T11:09:36.595Z,61.95
2019-03-01T11:12:08.840Z,63.38
2019-03-01T11:14:41.475Z,56.80
2019-03-01T11:17:13.721Z,68.67
2019-03-01T11:19:45.975Z,64.37
2019-03-01T11:22:18.211Z,65.97
2019-03-01T11:24:50.473Z,61.10
2019-03-01T11:27:22.711Z,62.80
2019-03-01T11:29:54.984Z,58.60
2019-03-01T11:32:27.235Z,66.05
2019-03-01T11:34:59.487Z,54.98
2019-03-01T11:37:31.744Z,51.33
2019-03-01T11:40:05.523Z,54.93
2019-03-01T11:42:37.759Z,64.40
2019-03-01T11:45:10.746Z,62.13
2019-03-01T11:47:42.993Z,58.30
2019-03-01T11:50:16.512Z,62.83
2019-03-01T11:52:48.776Z,58.03
2019-03-01T11:55:21.122Z,62.73
2019-03-01T11:57:53.368Z,62.97
2019-03-01T12:00:26.177Z,54.33
2019-03-01T12:02:58.402Z,57.10
2019-03-01T12:05:30.672Z,52.67
2019-03-01T12:08:02.884Z,52.27
2019-03-01T12:10:35.207Z,56.77
2019-03-01T12:13:07.447Z,61.90
2019-03-01T12:15:39.699Z,51.85
2019-03-01T12:18:12.038Z,68.72
2019-03-01T12:20:44.298Z,57.98
2019-03-01T12:23:16.608Z,52.48
2019-03-01T12:25:48.854Z,45.45
2019-03-01T12:28:21.077Z,43.33
2019-03-01T12:30:53.328Z,51.23
2019-03-01T12:33:25.562Z,43.90
2019-03-01T12:35:57.827Z,46.05
2019-03-01T12:38:30.312Z,41.73
2019-03-01T12:41:02.565Z,42.27
2019-03-01T12:43:34.816Z,45.12
2019-03-01T12:46:07.061Z,40.88
2019-03-01T12:48:39.309Z,38.33
2019-03-01T12:51:11.557Z,37.42
2019-03-01T12:53:43.796Z,41.98
2019-03-01T12:56:16.047Z,41.08
2019-03-01T12:58:48.284Z,39.25
2019-03-01T13:01:20.529Z,42.50
2019-03-01T13:03:52.783Z,39.48
2019-03-01T13:06:25.030Z,43.58
2019-03-01T13:08:57.505Z,41.40
2019-03-01T13:11:29.746Z,42.90
2019-03-01T13:14:01.976Z,41.98
2019-03-01T13:16:34.225Z,45.08
2019-03-01T13:19:06.466Z,44.85
2019-03-01T13:21:38.755Z,45.52
2019-03-01T13:24:12.697Z,42.43
2019-03-01T13:26:45.067Z,43.87
2019-03-01T13:29:19.090Z,49.55
2019-03-01T13:31:51.267Z,44.40
2019-03-01T13:34:23.518Z,48.33
2019-03-01T13:36:55.788Z,49.83
2019-03-01T13:39:28.030Z,55.33
2019-03-01T13:42:00.289Z,51.90
2019-03-01T13:44:32.521Z,53.90
2019-03-01T13:47:05.400Z,58.83
2019-03-01T13:49:38.749Z,54.18
2019-03-01T13:52:11.005Z,49.38
2019-03-01T13:54:45.411Z,48.87
2019-03-01T13:57:17.194Z,51.30
2019-03-01T13:59:49.511Z,45.98
2019-03-01T14:02:21.779Z,49.05
2019-03-01T14:04:54.028Z,52.13
2019-03-01T14:07:26.293Z,51.98
2019-03-01T14:10:00.865Z,51.27
2019-03-01T14:12:34.163Z,41.25
2019-03-01T14:15:10.448Z,42.58
2019-03-01T14:17:42.697Z,42.13
2019-03-01T14:20:20.516Z,43.13
2019-03-01T14:22:50.475Z,38.92
2019-03-01T14:25:22.699Z,36.63
2019-03-01T14:27:54.972Z,39.37
2019-03-01T14:30:56.872Z,44.70
2019-03-01T14:33:29.935Z,35.20
2019-03-01T14:36:03.858Z,36.00
2019-03-01T14:38:36.150Z,36.55
2019-03-01T14:41:08.502Z,35.25
2019-03-01T14:43:40.791Z,36.40
2019-03-01T14:46:13.026Z,34.35
2019-03-01T14:48:46.172Z,28.60
2019-03-01T14:51:19.275Z,29.75
2019-03-01T14:53:51.523Z,32.05
2019-03-01T14:56:25.436Z,30.48
2019-03-01T14:59:11.509Z,32.80
2019-03-01T15:02:04.268Z,32.85
2019-03-01T15:04:36.644Z,23.47
2019-03-01T15:07:08.888Z,20.72
2019-03-01T15:09:41.143Z,23.95
2019-03-01T15:12:19.872Z,26.00
2019-03-01T15:14:49.829Z,25.88
2019-03-01T15:17:21.911Z,27.48
2019-03-01T15:19:54.915Z,25.05
2019-03-01T15:22:27.168Z,25.40
2019-03-01T15:24:59.412Z,25.57
2019-03-01T15:27:31.643Z,26.75
2019-03-01T15:30:05.671Z,26.20
2019-03-01T15:32:39.390Z,26.95
2019-03-01T15:35:11.720Z,25.40
2019-03-01T15:37:43.976Z,22.77
2019-03-01T15:40:16.795Z,21.27
2019-03-01T15:42:51.461Z,28.15
2019-03-01T15:45:23.070Z,31.02
2019-03-01T15:47:55.371Z,38.63
2019-03-01T15:50:28.224Z,40.43
2019-03-01T15:53:00.480Z,38.00
2019-03-01T15:55:32.730Z,43.28
2019-03-01T15:58:05.021Z,50.73
2019-03-01T16:00:37.356Z,46.60
2019-03-01T16:03:09.873Z,59.45
2019-03-01T16:05:42.170Z,50.78
2019-03-01T16:08:14.426Z,64.25
2019-03-01T16:10:46.724Z,68.95
2019-03-01T16:13:19.047Z,56.28
2019-03-01T16:15:51.292Z,59.42
2019-03-01T16:18:23.568Z,54.77
2019-03-01T16:20:55.860Z,50.67
2019-03-01T16:23:30.251Z,63.20
2019-03-01T16:26:02.061Z,65.90
2019-03-01T16:28:34.336Z,55.95
2019-03-01T16:31:06.588Z,56.10
2019-03-01T16:33:38.870Z,57.45
2019-03-01T16:36:12.735Z,56.83
2019-03-01T16:38:48.698Z,52.08
2019-03-01T16:41:18.996Z,47.43
2019-03-01T16:43:51.221Z,38.17
2019-03-01T16:46:23.462Z,35.30
2019-03-01T16:48:55.726Z,34.00
2019-03-01T16:51:28.006Z,32.75
2019-03-01T16:54:00.252Z,33.85
2019-03-01T16:56:34.643Z,27.55
2019-03-01T16:59:07.309Z,27.77
2019-03-01T17:01:40.748Z,28.23
2019-03-01T17:04:13.149Z,31.85
2019-03-01T17:06:48.936Z,22.73
2019-03-01T17:09:19.368Z,26.93
2019-03-01T17:11:51.727Z,35.17
2019-03-01T17:14:24.024Z,29.40
2019-03-01T17:16:59.301Z,38.38
2019-03-01T17:19:30.244Z,36.85
2019-03-01T17:22:02.530Z,34.18
2019-03-01T17:24:34.777Z,34.33
2019-03-01T17:27:07.075Z,34.10
2019-03-01T17:29:39.955Z,26.93
2019-03-01T17:32:12.263Z,27.85
2019-03-01T17:34:44.500Z,28.92
2019-03-01T17:37:16.725Z,29.27
2019-03-01T17:39:49.059Z,29.18
2019-03-01T17:42:21.551Z,32.38
2019-03-01T17:44:53.818Z,30.92
2019-03-01T17:47:26.054Z,28.15
2019-03-01T17:49:58.312Z,28.15
2019-03-01T17:52:33.655Z,30.75
2019-03-01T17:55:06.290Z,30.65
2019-03-01T17:57:40.279Z,29.67
2019-03-01T18:00:21.612Z,27.62
2019-03-01T18:02:53.322Z,32.93
2019-03-01T18:05:25.586Z,36.77
2019-03-01T18:07:59.995Z,34.40
2019-03-01T18:10:32.936Z,31.17
2019-03-01T18:13:05.306Z,32.20
2019-03-01T18:15:38.566Z,31.33
2019-03-01T18:18:12.218Z,26.75
2019-03-01T18:20:44.776Z,29.07
2019-03-01T18:23:17.032Z,34.83
2019-03-01T18:25:49.313Z,36.73
2019-03-01T18:28:24.741Z,26.07
2019-03-01T18:30:56.382Z,31.07
2019-03-01T18:33:28.652Z,30.70
2019-03-01T18:36:00.888Z,25.37
2019-03-01T18:38:33.118Z,32.25
2019-03-01T18:41:05.376Z,26.75
2019-03-01T18:43:37.613Z,28.27
2019-03-01T18:46:09.890Z,28.42
2019-03-01T18:48:44.115Z,36.85
2019-03-01T18:51:16.213Z,25.68
2019-03-01T18:53:48.431Z,24.95
2019-03-01T18:56:20.683Z,26.23
2019-03-01T18:58:52.982Z,31.82
2019-03-01T19:01:25.239Z,28.62
2019-03-01T19:03:59.005Z,25.60
2019-03-01T19:06:31.349Z,30.75
2019-03-01T19:09:05.266Z,26.57
2019-03-01T19:11:38.819Z,30.82
2019-03-01T19:14:11.147Z,28.20
2019-03-01T19:16:43.399Z,32.85
2019-03-01T19:19:15.646Z,26.17
2019-03-01T19:21:49.483Z,28.02
2019-03-01T19:24:22.119Z,26.52
2019-03-01T19:26:54.510Z,31.82
2019-03-01T19:29:26.763Z,26.15
2019-03-01T19:31:59.057Z,26.12
2019-03-01T19:34:31.288Z,33.83
2019-03-01T19:37:04.583Z,36.35
2019-03-01T19:39:36.859Z,33.53
2019-03-01T19:42:09.255Z,38.33
2019-03-01T19:44:41.526Z,28.85
2019-03-01T19:47:14.926Z,39.80
2019-03-01T19:49:48.585Z,35.83
2019-03-01T19:52:21.307Z,29.95
2019-03-01T19:54:53.563Z,29.55
2019-03-01T19:57:25.814Z,33.28
2019-03-01T19:59:58.054Z,33.48
2019-03-01T20:02:31.003Z,38.85
2019-03-01T20:05:05.569Z,36.42
2019-03-01T20:07:37.833Z,34.33
2019-03-01T20:10:14.836Z,39.42
2019-03-01T20:12:45.638Z,38.13
2019-03-01T20:15:22.569Z,39.63
2019-03-01T20:17:54.810Z,30.70
2019-03-01T20:20:31.933Z,34.98
2019-03-01T20:23:01.522Z,35.08
2019-03-01T20:25:33.768Z,33.85
2019-03-01T20:28:06.092Z,34.60
2019-03-01T20:30:38.328Z,38.28
2019-03-01T20:33:10.571Z,32.63
2019-03-01T20:35:42.812Z,34.08
2019-03-01T20:38:15.110Z,37.80
2019-03-01T20:40:47.375Z,31.65
2019-03-01T20:43:19.626Z,38.95
2019-03-01T20:45:51.858Z,27.37
2019-03-01T20:48:25.712Z,31.33
2019-03-01T20:50:58.114Z,28.15
2019-03-01T20:53:30.346Z,33.30
2019-03-01T20:56:02.579Z,27.73
2019-03-01T20:58:35.856Z,31.05
2019-03-01T21:01:09.062Z,26.45
2019-03-01T21:03:41.313Z,25.90
2019-03-01T21:06:13.556Z,30.30
2019-03-01T21:08:45.815Z,27.85
2019-03-01T21:11:18.047Z,27.22
2019-03-01T21:13:51.220Z,24.57
2019-03-01T21:16:23.470Z,29.65
2019-03-01T21:18:55.735Z,32.38
2019-03-01T21:21:28.951Z,25.55
2019-03-01T21:24:01.300Z,27.15
2019-03-01T21:26:33.547Z,24.45
2019-03-01T21:29:09.010Z,26.93
2019-03-01T21:31:39.745Z,25.35
2019-03-01T21:34:11.994Z,31.40
2019-03-01T21:36:44.232Z,25.50
2019-03-01T21:39:16.616Z,24.05
2019-03-01T21:41:48.894Z,20.23
2019-03-01T21:44:21.155Z,25.30
2019-03-01T21:46:53.398Z,22.07
2019-03-01T21:49:25.671Z,22.15
2019-03-01T21:51:57.921Z,23.92
2019-03-01T21:54:30.195Z,23.87
2019-03-01T21:57:02.433Z,29.37
2019-03-01T21:59:34.699Z,29.52
2019-03-01T22:02:06.944Z,28.20
2019-03-01T22:04:39.191Z,23.52
2019-03-01T22:07:11.454Z,16.93
2019-03-01T22:09:43.722Z,21.45
2019-03-01T22:12:15.952Z,17.15
2019-03-01T22:14:49.067Z,24.63
2019-03-01T22:17:21.431Z,18.02
2019-03-01T22:19:53.675Z,19.37
2019-03-01T22:22:25.915Z,19.27
2019-03-01T22:24:58.667Z,19.23
2019-03-01T22:27:32.138Z,17.50
2019-03-01T22:30:08.895Z,22.45
2019-03-01T22:32:42.350Z,20.75
2019-03-01T22:35:15.112Z,18.10
2019-03-01T22:37:47.349Z,21.65
2019-03-01T22:40:19.631Z,20.12
2019-03-01T22:42:51.874Z,22.52
2019-03-01T22:45:24.118Z,24.50
2019-03-01T22:47:56.385Z,20.72
2019-03-01T22:50:28.632Z,25.02
2019-03-01T22:53:03.226Z,19.80
2019-03-01T22:55:36.722Z,20.48
2019-03-01T22:58:08.923Z,20.08
2019-03-01T23:00:59.064Z,23.10
2019-03-01T23:03:31.295Z,23.57
2019-03-01T23:06:03.638Z,22.67
2019-03-01T23:08:36.582Z,21.82
2019-03-01T23:11:08.882Z,20.12
2019-03-01T23:13:41.112Z,19.65
2019-03-01T23:16:15.915Z,19.98
2019-03-01T23:18:56.209Z,22.07
2019-03-01T23:21:21.302Z,19.23
2019-03-01T23:23:55.801Z,21.37
2019-03-01T23:26:27.506Z,18.12
2019-03-01T23:28:59.746Z,23.43
2019-03-01T23:31:35.670Z,22.40
2019-03-01T23:34:07.164Z,23.02
2019-03-01T23:36:40.020Z,24.18
2019-03-01T23:39:12.250Z,26.93
2019-03-01T23:41:46.405Z,20.60
2019-03-01T23:44:18.489Z,19.77
2019-03-01T23:46:50.749Z,26.40
2019-03-01T23:49:24.073Z,21.95
2019-03-01T23:51:56.525Z,22.80
2019-03-01T23:54:28.778Z,20.37
2019-03-01T23:57:02.013Z,22.52
2019-03-01T23:59:35.099Z,19.80
